Time;durP1;ratioP1;P1;durP2;ratioP2;P2;SDS_P1;SDS_P2;PMS_P1;PMS_P2;Temp;Humidity;BMP_temperature;BMP_pressure;BME280_temperature;BME280_humidity;BME280_pressure;Samples;Min_cycle;Max_cycle;Signal;HPM_P1;HPM_P2
2022/09/19 00:01:19;;;;;;;1.02;1.00;;;16.80;90.00;;;;;;4947088;28;20027;-91
2022/09/19 00:03:50;;;;;;;1.48;1.10;;;16.80;89.90;;;;;;4985790;28;20086;-88
2022/09/19 00:06:16;;;;;;;1.13;1.02;;;16.80;90.00;;;;;;4980104;28;20055;-88
2022/09/19 00:08:43;;;;;;;1.05;1.05;;;16.80;89.80;;;;;;4981215;28;20047;-87
2022/09/19 00:11:11;;;;;;;1.20;1.10;;;16.80;90.10;;;;;;4982811;28;20035;-87
2022/09/19 00:13:41;;;;;;;1.30;1.20;;;16.80;90.00;;;;;;4956204;28;20095;-87
2022/09/19 00:16:07;;;;;;;1.83;1.30;;;16.80;90.10;;;;;;4954778;28;20031;-88
2022/09/19 00:18:33;;;;;;;1.40;1.30;;;16.80;90.10;;;;;;4934621;28;20074;-90
2022/09/19 00:21:00;;;;;;;1.50;1.40;;;16.80;90.10;;;;;;4947578;28;20043;-93
2022/09/19 00:26:12;;;;;;;;;;;16.80;90.00;;;;;;4963908;28;20506;-92
2022/09/19 00:28:39;;;;;;;1.45;1.30;;;16.80;90.10;;;;;;4930171;28;19919;-89
2022/09/19 00:31:05;;;;;;;2.55;1.42;;;16.90;90.00;;;;;;4928340;28;20035;-88
2022/09/19 00:33:33;;;;;;;2.42;1.10;;;16.80;89.90;;;;;;4931310;28;20510;-87
2022/09/19 00:36:03;;;;;;;1.42;1.33;;;16.80;89.80;;;;;;4942566;28;20055;-87
2022/09/19 00:38:30;;;;;;;1.60;1.33;;;16.80;89.80;;;;;;4941959;28;20486;-88
2022/09/19 00:40:57;;;;;;;1.10;1.10;;;16.80;89.70;;;;;;4925510;28;20035;-88
2022/09/19 00:43:42;;;;;;;3.38;1.67;;;16.80;90.00;;;;;;4957459;28;20039;-88
2022/09/19 00:46:07;;;;;;;3.30;1.83;;;16.80;90.10;;;;;;4926034;28;20030;-87
2022/09/19 00:48:34;;;;;;;3.10;1.63;;;16.80;90.30;;;;;;4942919;28;20031;-88
2022/09/19 00:51:02;;;;;;;1.83;1.73;;;16.80;90.30;;;;;;4948317;28;20047;-87
2022/09/19 00:53:31;;;;;;;1.58;1.48;;;16.80;90.00;;;;;;4941477;28;20134;-87
2022/09/19 00:55:57;;;;;;;2.03;1.90;;;16.80;90.00;;;;;;4961690;28;20062;-87
2022/09/19 00:58:26;;;;;;;2.00;1.80;;;16.80;89.80;;;;;;4959478;28;20383;-88
2022/09/19 01:00:52;;;;;;;1.77;1.67;;;16.80;90.00;;;;;;4943093;28;20110;-89
2022/09/19 01:03:19;;;;;;;1.70;1.60;;;16.80;90.00;;;;;;4928120;28;20061;-89
2022/09/19 01:05:58;;;;;;;1.92;1.83;;;16.80;89.70;;;;;;4976093;28;20417;-89
2022/09/19 01:08:43;;;;;;;1.70;1.60;;;16.80;90.00;;;;;;4960389;28;20405;-90
2022/09/19 01:11:19;;;;;;;2.42;1.85;;;16.80;89.70;;;;;;4955033;28;20049;-86
2022/09/19 01:13:55;;;;;;;2.00;1.90;;;16.80;89.80;;;;;;4974662;28;20038;-89
2022/09/19 01:16:34;;;;;;;1.90;1.80;;;16.80;89.50;;;;;;4968593;28;20067;-87
2022/09/19 01:19:29;;;;;;;2.10;1.90;;;16.80;89.50;;;;;;4941642;28;20039;-89
2022/09/19 01:22:02;;;;;;;2.67;1.88;;;16.90;89.30;;;;;;4951389;28;20598;-89
2022/09/19 01:24:43;;;;;;;2.08;1.88;;;16.80;89.40;;;;;;4950757;28;20570;-88
2022/09/19 01:27:18;;;;;;;2.92;2.45;;;16.80;89.30;;;;;;4924777;28;20391;-88
2022/09/19 01:29:49;;;;;;;2.20;2.10;;;16.80;89.20;;;;;;4949007;28;20126;-90
2022/09/19 01:32:21;;;;;;;2.40;2.30;;;16.80;89.30;;;;;;4933701;28;20035;-88
2022/09/19 01:34:55;;;;;;;2.33;1.85;;;16.90;89.50;;;;;;4929269;28;20041;-85
2022/09/19 01:37:32;;;;;;;2.17;2.08;;;16.80;89.30;;;;;;4928179;28;20035;-93
2022/09/19 01:40:03;;;;;;;2.67;2.47;;;16.80;89.50;;;;;;4929812;28;20054;-90
2022/09/19 01:42:31;;;;;;;2.80;2.60;;;16.90;89.50;;;;;;4927331;28;20066;-91
2022/09/19 01:44:59;;;;;;;2.88;2.65;;;16.80;89.30;;;;;;4928660;28;20053;-92
2022/09/19 01:47:38;;;;;;;2.83;2.63;;;16.90;89.40;;;;;;4921096;28;20039;-92
2022/09/19 01:50:14;;;;;;;2.97;2.67;;;16.90;89.30;;;;;;4917667;28;20046;-90
2022/09/19 01:52:49;;;;;;;3.15;2.85;;;16.90;89.20;;;;;;4937033;28;20046;-91
2022/09/19 01:55:23;;;;;;;3.30;3.10;;;16.90;89.20;;;;;;4960043;28;20042;-90
2022/09/19 01:58:11;;;;;;;4.03;3.72;;;16.90;89.20;;;;;;4946666;28;20045;-91
2022/09/19 02:00:51;;;;;;;3.97;3.67;;;16.90;89.60;;;;;;4929035;28;20031;-93
2022/09/19 02:03:26;;;;;;;4.28;3.97;;;16.90;89.70;;;;;;4931914;28;20328;-89
2022/09/19 02:06:16;;;;;;;3.95;3.65;;;16.90;89.70;;;;;;4943663;28;20203;-89
2022/09/19 02:09:03;;;;;;;4.25;3.85;;;16.90;89.70;;;;;;4943433;28;20298;-91
2022/09/19 02:11:46;;;;;;;3.80;3.50;;;16.90;89.30;;;;;;4948529;28;20043;-91
2022/09/19 02:14:18;;;;;;;4.00;3.60;;;16.90;89.20;;;;;;4947225;28;20058;-92
2022/09/19 02:17:03;;;;;;;4.10;3.80;;;16.90;89.50;;;;;;4920454;28;20418;-91
2022/09/19 02:19:44;;;;;;;3.95;3.65;;;16.90;89.60;;;;;;4928691;28;20043;-92
2022/09/19 02:22:31;;;;;;;4.68;3.97;;;16.90;89.60;;;;;;4944788;28;20030;-90
2022/09/19 02:25:08;;;;;;;4.60;3.85;;;16.90;89.50;;;;;;4937355;28;20038;-92
2022/09/19 02:27:51;;;;;;;3.65;3.35;;;16.90;89.50;;;;;;4931649;28;20630;-91
2022/09/19 02:30:20;;;;;;;4.20;3.90;;;16.90;89.50;;;;;;4944165;28;20065;-89
2022/09/19 02:32:49;;;;;;;4.38;3.97;;;16.90;89.90;;;;;;4943812;28;20118;-89
2022/09/19 02:35:24;;;;;;;3.58;3.38;;;16.90;89.20;;;;;;4961945;28;20042;-90
2022/09/19 02:38:01;;;;;;;3.50;3.30;;;16.90;89.10;;;;;;4934711;28;20039;-91
2022/09/19 02:40:40;;;;;;;4.60;3.97;;;16.90;89.30;;;;;;4934668;28;20031;-89
2022/09/19 02:43:17;;;;;;;4.75;4.35;;;16.90;89.50;;;;;;4929334;28;20025;-89
2022/09/19 02:45:51;;;;;;;4.03;3.72;;;16.90;90.10;;;;;;4933811;28;20047;-90
2022/09/19 02:48:42;;;;;;;4.70;3.70;;;16.90;89.90;;;;;;4918972;28;20032;-86
2022/09/19 02:51:31;;;;;;;4.47;4.07;;;16.90;89.60;;;;;;4943557;28;20046;-91
2022/09/19 02:54:13;;;;;;;4.10;3.70;;;16.90;90.00;;;;;;4947014;28;20046;-92
2022/09/19 02:56:41;;;;;;;3.75;3.45;;;16.90;89.90;;;;;;4944204;28;20038;-92
2022/09/19 02:59:18;;;;;;;3.38;3.10;;;16.90;89.90;;;;;;4927751;28;20666;-90
2022/09/19 03:01:57;;;;;;;4.78;3.60;;;16.90;89.60;;;;;;4943521;28;20042;-87
2022/09/19 03:04:29;;;;;;;3.40;3.10;;;16.90;89.70;;;;;;4942748;28;20386;-90
2022/09/19 03:07:13;;;;;;;3.30;3.08;;;17.00;89.90;;;;;;4934567;28;20145;-90
2022/09/19 03:10:00;;;;;;;5.13;3.28;;;16.90;89.60;;;;;;4958444;28;20053;-92
2022/09/19 03:12:37;;;;;;;3.85;3.55;;;17.00;89.70;;;;;;4954855;28;20502;-91
2022/09/19 03:15:06;;;;;;;3.80;3.45;;;17.00;89.90;;;;;;4938872;28;20043;-90
2022/09/19 03:17:41;;;;;;;3.53;3.22;;;17.00;90.00;;;;;;4944044;28;20095;-89
2022/09/19 03:20:11;;;;;;;4.00;3.63;;;16.90;90.00;;;;;;4950268;28;20414;-87
2022/09/19 03:22:41;;;;;;;4.05;3.38;;;17.00;90.10;;;;;;4939309;28;20035;-88
2022/09/19 03:25:09;;;;;;;3.75;3.45;;;17.00;90.00;;;;;;4923062;28;20055;-87
2022/09/19 03:27:38;;;;;;;4.32;3.92;;;17.00;90.20;;;;;;4940070;28;20066;-88
2022/09/19 03:30:10;;;;;;;3.70;3.40;;;17.00;90.30;;;;;;4940829;28;20039;-88
2022/09/19 03:32:38;;;;;;;3.85;3.55;;;17.00;90.00;;;;;;4934864;28;20038;-89
2022/09/19 03:35:06;;;;;;;3.40;3.10;;;17.00;89.80;;;;;;4954591;28;20099;-89
2022/09/19 03:37:33;;;;;;;3.15;2.85;;;17.00;89.70;;;;;;4940736;28;20031;-91
2022/09/19 03:40:01;;;;;;;3.40;3.10;;;17.00;89.30;;;;;;4938001;28;21096;-82
2022/09/19 03:42:28;;;;;;;3.40;3.08;;;17.00;89.90;;;;;;4938110;28;21469;-85
2022/09/19 03:44:54;;;;;;;4.82;3.08;;;17.00;89.60;;;;;;4956860;28;20030;-89
2022/09/19 03:47:21;;;;;;;3.72;3.20;;;17.00;89.70;;;;;;4964772;28;20050;-82
2022/09/19 03:49:51;;;;;;;3.25;2.95;;;17.00;89.10;;;;;;4947488;28;20086;-77
2022/09/19 03:52:18;;;;;;;3.63;3.33;;;17.00;89.00;;;;;;4962853;28;20122;-84
2022/09/19 03:54:45;;;;;;;3.50;3.20;;;17.00;89.00;;;;;;4952454;28;20031;-84
2022/09/19 03:57:12;;;;;;;3.88;3.30;;;17.00;89.20;;;;;;4951532;28;21197;-84
2022/09/19 03:59:42;;;;;;;3.65;2.95;;;17.00;89.00;;;;;;4938886;28;20511;-86
2022/09/19 04:02:10;;;;;;;3.25;3.00;;;17.00;89.10;;;;;;4967007;28;20089;-81
2022/09/19 04:04:36;;;;;;;3.05;2.78;;;17.10;89.50;;;;;;4952334;28;20079;-83
2022/09/19 04:07:05;;;;;;;2.53;2.33;;;17.10;88.90;;;;;;4950343;28;20031;-83
2022/09/19 04:09:31;;;;;;;2.83;2.63;;;17.00;88.50;;;;;;4952497;28;20430;-84
2022/09/19 04:12:03;;;;;;;2.75;2.50;;;17.10;88.50;;;;;;4951850;28;20582;-88
2022/09/19 04:14:31;;;;;;;3.28;2.72;;;17.10;88.50;;;;;;4936328;28;20035;-87
2022/09/19 04:16:59;;;;;;;2.58;2.38;;;17.10;88.40;;;;;;4952959;28;20042;-89
2022/09/19 04:19:26;;;;;;;2.78;2.53;;;17.10;88.30;;;;;;4954650;28;20042;-90
2022/09/19 04:22:24;;;;;;;3.08;2.88;;;17.10;88.80;;;;;;4923393;28;20077;-85
2022/09/19 04:25:10;;;;;;;;;;;17.10;88.20;;;;;;4955459;28;20037;-79
2022/09/19 04:27:55;;;;;;;3.25;2.33;;;17.10;88.00;;;;;;4956479;28;19915;-86
2022/09/19 04:30:23;;;;;;;2.92;2.72;;;17.10;87.80;;;;;;4939706;28;20077;-85
2022/09/19 04:32:51;;;;;;;2.25;2.05;;;17.10;87.90;;;;;;4927351;28;20555;-84
2022/09/19 04:35:18;;;;;;;2.35;1.60;;;17.10;87.80;;;;;;4955987;28;20541;-84
2022/09/19 04:37:44;;;;;;;4.07;1.80;;;17.10;87.70;;;;;;4956284;28;20035;-84
2022/09/19 04:40:14;;;;;;;1.67;1.58;;;17.10;87.60;;;;;;4966327;28;20042;-85
2022/09/19 04:42:41;;;;;;;1.40;1.20;;;17.10;87.40;;;;;;4921704;28;20031;-82
2022/09/19 04:45:08;;;;;;;2.03;1.55;;;17.10;87.40;;;;;;4971978;28;20062;-82
2022/09/19 04:47:55;;;;;;;2.85;1.48;;;17.10;87.40;;;;;;4955105;28;20035;-81
2022/09/19 04:50:21;;;;;;;2.97;1.50;;;17.10;87.30;;;;;;4948520;28;20067;-81
2022/09/19 04:52:56;;;;;;;3.75;1.20;;;17.10;87.20;;;;;;4938977;28;20129;-80
2022/09/19 04:55:24;;;;;;;1.85;1.38;;;17.10;87.00;;;;;;4942820;28;20442;-79
2022/09/19 04:57:50;;;;;;;2.88;1.42;;;17.10;86.80;;;;;;4959535;28;20043;-81
2022/09/19 05:00:36;;;;;;;2.95;1.20;;;17.10;86.70;;;;;;4960188;28;20106;-79
2022/09/19 05:03:08;;;;;;;2.50;1.15;;;17.10;86.60;;;;;;4975379;28;20341;-79
2022/09/19 05:05:36;;;;;;;3.45;1.38;;;17.10;86.70;;;;;;4959409;28;20051;-80
2022/09/19 05:08:04;;;;;;;1.75;1.50;;;17.10;87.30;;;;;;4930773;28;20317;-79
2022/09/19 05:10:33;;;;;;;3.75;1.45;;;17.10;86.70;;;;;;4957421;28;20483;-80
2022/09/19 05:13:01;;;;;;;3.25;1.23;;;17.10;86.80;;;;;;4958801;28;20043;-78
2022/09/19 05:15:26;;;;;;;2.70;1.10;;;17.20;86.70;;;;;;4958587;28;20039;-80
2022/09/19 05:17:54;;;;;;;3.38;1.30;;;17.20;86.50;;;;;;4959490;28;20039;-79
2022/09/19 05:20:20;;;;;;;2.38;1.10;;;17.20;86.10;;;;;;4958809;28;20118;-80
2022/09/19 05:22:46;;;;;;;2.75;1.17;;;17.20;86.10;;;;;;4942290;28;20073;-80
2022/09/19 05:25:15;;;;;;;1.55;0.98;;;17.20;86.10;;;;;;4958262;28;20527;-80
2022/09/19 05:27:41;;;;;;;2.20;0.93;;;17.20;86.10;;;;;;4958017;28;20035;-80
2022/09/19 05:30:10;;;;;;;2.33;0.98;;;17.30;86.10;;;;;;4956928;28;20232;-78
2022/09/19 05:32:36;;;;;;;3.38;1.20;;;17.20;86.60;;;;;;4958487;28;20482;-79
2022/09/19 05:35:14;;;;;;;0.95;0.88;;;17.20;86.00;;;;;;4963572;28;20031;-90
2022/09/19 05:38:03;;;;;;;1.35;1.00;;;17.30;85.60;;;;;;4954100;28;20055;-91
2022/09/19 05:40:51;;;;;;;4.18;0.98;;;17.30;84.60;;;;;;4967770;28;20039;-85
2022/09/19 05:43:36;;;;;;;1.38;0.77;;;17.30;82.70;;;;;;4949321;28;20035;-88
2022/09/19 05:46:02;;;;;;;1.85;0.80;;;17.20;82.10;;;;;;4949216;28;20031;-89
2022/09/19 05:48:29;;;;;;;2.10;0.90;;;17.20;82.20;;;;;;4947133;28;20031;-84
2022/09/19 05:50:56;;;;;;;2.50;0.88;;;17.10;81.70;;;;;;4934439;28;20039;-86
2022/09/19 05:56:25;;;;;;;1.08;0.70;;;17.00;81.00;;;;;;4961626;28;20069;-86
2022/09/19 05:58:58;;;;;;;0.88;0.52;;;17.00;80.40;;;;;;4920809;28;20047;-84
2022/09/19 06:01:26;;;;;;;0.38;0.30;;;17.00;79.70;;;;;;4944286;28;20117;-87
2022/09/19 06:03:52;;;;;;;0.25;0.25;;;17.00;79.30;;;;;;4959632;28;20414;-83
2022/09/19 06:06:20;;;;;;;0.70;0.50;;;17.00;79.10;;;;;;4940523;28;20098;-86
2022/09/19 06:08:55;;;;;;;1.05;0.30;;;16.90;79.10;;;;;;4959227;28;20031;-86
2022/09/19 06:11:22;;;;;;;0.90;0.50;;;16.90;78.30;;;;;;4947956;28;20069;-87
2022/09/19 06:16:35;;;;;;;1.40;0.57;;;16.80;78.00;;;;;;4942523;28;20050;-86
2022/09/19 06:19:20;;;;;;;0.52;0.52;;;16.80;78.00;;;;;;4971753;28;20091;-84
2022/09/19 06:21:53;;;;;;;0.95;0.30;;;16.70;77.60;;;;;;4968760;28;20410;-84
2022/09/19 06:24:20;;;;;;;2.25;0.45;;;16.70;77.10;;;;;;4973219;28;20090;-84
2022/09/19 06:26:47;;;;;;;0.40;0.40;;;16.60;77.00;;;;;;4961567;28;20533;-84
2022/09/19 06:29:13;;;;;;;1.55;0.30;;;16.50;77.10;;;;;;4957989;28;20039;-86
2022/09/19 06:31:47;;;;;;;0.55;0.30;;;16.50;77.20;;;;;;4926257;28;20042;-83
2022/09/19 06:34:17;;;;;;;0.52;0.28;;;16.50;76.80;;;;;;4943149;28;20082;-87
2022/09/19 06:36:44;;;;;;;1.48;0.40;;;16.50;77.00;;;;;;4942365;28;20035;-84
2022/09/19 06:39:10;;;;;;;0.90;0.40;;;16.40;76.40;;;;;;4958086;28;20041;-85
2022/09/19 06:41:45;;;;;;;0.50;0.40;;;16.40;76.80;;;;;;4929735;28;20084;-82
2022/09/19 06:44:30;;;;;;;1.63;0.57;;;16.40;76.90;;;;;;4935808;28;20030;-85
2022/09/19 06:47:19;;;;;;;1.00;0.40;;;16.30;76.60;;;;;;4938751;28;20471;-87
2022/09/19 06:50:24;;;;;;;0.50;0.50;;;16.30;77.20;;;;;;4917634;29;20044;-78
2022/09/19 06:52:57;;;;;;;0.70;0.50;;;16.30;77.20;;;;;;4900670;29;20087;-80
2022/09/19 06:55:25;;;;;;;0.55;0.52;;;16.20;77.10;;;;;;4885469;29;20047;-80
2022/09/19 06:58:02;;;;;;;0.40;0.40;;;16.20;77.30;;;;;;4902475;29;20029;-78
2022/09/19 07:00:31;;;;;;;0.80;0.40;;;16.20;77.60;;;;;;4900632;29;20542;-83
2022/09/19 07:03:04;;;;;;;1.08;0.40;;;16.30;77.60;;;;;;4885333;29;20044;-82
2022/09/19 07:05:34;;;;;;;1.70;0.40;;;16.30;77.50;;;;;;4901511;29;20055;-83
2022/09/19 07:08:26;;;;;;;0.45;0.45;;;16.30;77.00;;;;;;4915334;29;20035;-85
2022/09/19 07:10:57;;;;;;;0.80;0.43;;;16.40;76.70;;;;;;4901501;29;20046;-84
2022/09/19 07:13:23;;;;;;;2.47;0.40;;;16.30;76.20;;;;;;4902033;29;20040;-81
2022/09/19 07:15:58;;;;;;;1.38;0.40;;;16.30;75.70;;;;;;4901737;29;20355;-83
2022/09/19 07:18:24;;;;;;;1.48;0.28;;;16.30;75.50;;;;;;4904288;29;20139;-79
2022/09/19 07:20:52;;;;;;;0.50;0.20;;;16.30;75.40;;;;;;4931409;28;20035;-81
2022/09/19 07:23:22;;;;;;;0.52;0.20;;;16.30;75.20;;;;;;4959989;28;20081;-80
2022/09/19 07:25:48;;;;;;;0.60;0.20;;;16.30;75.40;;;;;;4955693;28;20047;-82
2022/09/19 07:28:17;;;;;;;1.33;0.35;;;16.20;75.60;;;;;;4955900;28;20043;-81
2022/09/19 07:30:46;;;;;;;0.52;0.10;;;16.30;76.20;;;;;;4925411;28;20039;-84
2022/09/19 07:33:17;;;;;;;0.70;0.20;;;16.30;75.90;;;;;;4924468;28;20109;-85
2022/09/19 07:35:43;;;;;;;0.40;0.20;;;16.20;75.70;;;;;;4959590;28;20134;-83
2022/09/19 07:38:13;;;;;;;0.65;0.20;;;16.20;75.70;;;;;;4973688;28;20055;-81
2022/09/19 07:40:53;;;;;;;0.22;0.10;;;16.10;75.80;;;;;;4930614;28;20089;-80
2022/09/19 07:43:29;;;;;;;2.28;0.25;;;16.10;75.80;;;;;;4942638;28;20062;-82
2022/09/19 07:46:28;;;;;;;0.65;0.30;;;16.10;75.50;;;;;;4924787;28;20039;-82
2022/09/19 07:48:56;;;;;;;1.77;0.20;;;16.10;75.70;;;;;;4956413;28;20039;-83
2022/09/19 07:51:41;;;;;;;3.97;0.30;;;16.10;75.00;;;;;;4957686;28;20518;-83
2022/09/19 07:54:07;;;;;;;1.52;0.20;;;16.00;74.60;;;;;;4939797;28;20031;-83
2022/09/19 07:56:33;;;;;;;0.43;0.30;;;16.00;75.00;;;;;;4938375;28;20109;-84
2022/09/19 07:59:00;;;;;;;1.65;0.20;;;16.00;75.20;;;;;;4938965;28;20134;-84
2022/09/19 08:01:32;;;;;;;0.93;0.20;;;16.00;74.90;;;;;;4939027;28;20038;-83
2022/09/19 08:04:13;;;;;;;0.20;0.20;;;15.90;74.30;;;;;;4927287;28;20028;-83
2022/09/19 08:07:00;;;;;;;0.40;0.30;;;15.90;74.00;;;;;;4942877;28;20103;-82
2022/09/19 08:09:26;;;;;;;0.55;0.20;;;15.90;73.60;;;;;;4939346;28;20101;-82
2022/09/19 08:12:11;;;;;;;0.63;0.20;;;15.80;73.50;;;;;;4955027;28;20039;-82
2022/09/19 08:14:43;;;;;;;0.20;0.20;;;15.80;73.00;;;;;;4942975;28;20037;-83
2022/09/19 08:17:10;;;;;;;0.70;0.13;;;15.80;73.10;;;;;;4956068;28;20510;-84
2022/09/19 08:19:36;;;;;;;1.27;0.10;;;15.70;72.80;;;;;;4956975;28;20050;-83
2022/09/19 08:22:02;;;;;;;0.30;0.20;;;15.70;72.70;;;;;;4955071;28;20582;-83
2022/09/19 08:24:35;;;;;;;7.07;0.30;;;15.70;72.50;;;;;;4954073;28;20051;-83
2022/09/19 08:27:08;;;;;;;1.65;0.30;;;15.70;72.60;;;;;;4939866;28;20035;-82
2022/09/19 08:29:37;;;;;;;1.65;0.20;;;15.70;72.50;;;;;;4945480;28;20043;-82
2022/09/19 08:32:07;;;;;;;1.20;0.60;;;15.70;72.30;;;;;;4943067;28;20410;-83
2022/09/19 08:34:33;;;;;;;0.47;0.22;;;15.60;72.80;;;;;;4936212;28;20039;-85
2022/09/19 08:37:00;;;;;;;3.05;0.30;;;15.60;72.60;;;;;;4955845;28;20093;-84
2022/09/19 08:39:29;;;;;;;0.32;0.20;;;15.60;72.60;;;;;;4955316;28;20035;-83
2022/09/19 08:41:58;;;;;;;0.60;0.20;;;15.60;72.80;;;;;;4955791;28;20538;-83
2022/09/19 08:44:47;;;;;;;0.50;0.20;;;15.60;72.70;;;;;;4939923;28;20204;-82
2022/09/19 08:47:18;;;;;;;0.22;0.22;;;15.60;72.40;;;;;;4954936;28;20038;-83
2022/09/19 08:49:54;;;;;;;0.30;0.10;;;15.70;72.00;;;;;;4937314;28;20039;-84
2022/09/19 08:52:36;;;;;;;0.50;0.30;;;15.60;72.20;;;;;;4953813;28;20050;-83
2022/09/19 08:55:10;;;;;;;1.00;0.20;;;15.60;71.90;;;;;;4945504;28;20031;-84
2022/09/19 08:57:48;;;;;;;0.70;0.25;;;15.70;71.60;;;;;;4944187;28;20051;-85
2022/09/19 09:00:18;;;;;;;0.63;0.30;;;15.60;71.20;;;;;;4941934;28;20121;-83
2022/09/19 09:02:54;;;;;;;1.65;0.30;;;15.60;71.50;;;;;;4937875;28;20433;-83
2022/09/19 09:05:41;;;;;;;1.87;0.20;;;15.50;71.30;;;;;;4938978;28;20054;-83
2022/09/19 09:08:08;;;;;;;0.38;0.20;;;15.50;71.90;;;;;;4945762;28;20809;-82
2022/09/19 09:11:14;;;;;;;0.20;0.20;;;15.60;71.40;;;;;;4874941;29;20087;-82
2022/09/19 09:14:21;;;;;;;0.38;0.13;;;15.60;71.10;;;;;;4885047;29;20156;-82
2022/09/19 09:16:56;;;;;;;0.25;0.10;;;15.50;71.20;;;;;;4828093;29;20058;-83
2022/09/19 09:19:59;;;;;;;0.47;0.20;;;15.50;71.00;;;;;;4828310;29;20448;-84
2022/09/19 09:22:48;;;;;;;1.23;0.20;;;15.50;71.60;;;;;;4843739;29;20030;-82
2022/09/19 09:25:49;;;;;;;0.30;0.28;;;15.50;71.80;;;;;;4828914;29;20129;-83
2022/09/19 09:28:46;;;;;;;2.08;1.30;;;15.50;71.90;;;;;;4829523;29;20437;-83
2022/09/19 09:31:29;;;;;;;1.30;0.68;;;15.50;72.10;;;;;;4740622;30;20043;-84
2022/09/19 09:34:18;;;;;;;1.80;0.60;;;15.50;72.20;;;;;;4753617;30;20036;-84
2022/09/19 09:36:59;;;;;;;1.15;0.10;;;15.50;72.70;;;;;;4732096;30;21595;-84
2022/09/19 09:40:09;;;;;;;0.55;0.20;;;15.50;72.90;;;;;;4756592;30;20136;-83
2022/09/19 09:42:46;;;;;;;0.70;0.38;;;15.40;73.20;;;;;;4743196;30;20516;-83
2022/09/19 09:45:29;;;;;;;1.65;0.38;;;15.40;74.10;;;;;;4785408;29;20151;-84
2022/09/19 09:48:24;;;;;;;1.08;0.50;;;15.40;74.70;;;;;;4802702;29;20203;-83
2022/09/19 09:51:05;;;;;;;1.30;0.30;;;15.30;75.30;;;;;;4786296;29;20049;-83
2022/09/19 09:53:34;;;;;;;2.47;0.63;;;15.30;75.50;;;;;;4841315;29;20033;-84
2022/09/19 09:56:14;;;;;;;1.13;0.30;;;15.30;75.90;;;;;;4823257;29;20046;-83
2022/09/19 10:03:34;;;;;;;0.93;0.40;;;15.30;76.10;;;;;;4834718;29;20040;-84
2022/09/19 10:05:33;;;;;;;2.25;0.40;;;15.20;76.40;;;;;;4827031;29;20097;-83
2022/09/19 10:08:06;;;;;;;0.82;0.30;;;15.20;76.20;;;;;;4887488;28;20043;-84
2022/09/19 10:10:35;;;;;;;0.20;0.10;;;15.20;76.30;;;;;;4945444;28;20077;-80
2022/09/19 10:13:14;;;;;;;0.45;0.20;;;15.20;76.30;;;;;;4943441;28;20035;-84
2022/09/19 10:15:42;;;;;;;0.85;0.20;;;15.20;76.30;;;;;;4945038;28;20055;-84
2022/09/19 10:18:16;;;;;;;0.47;0.20;;;15.20;76.50;;;;;;4941588;28;20525;-82
2022/09/19 10:21:04;;;;;;;0.60;0.30;;;15.20;76.50;;;;;;4941566;28;20525;-82
2022/09/19 10:23:34;;;;;;;0.85;0.25;;;15.20;76.10;;;;;;4941106;28;20042;-84
2022/09/19 10:26:14;;;;;;;0.65;0.40;;;15.10;76.00;;;;;;4940753;28;20756;-82
2022/09/19 10:28:51;;;;;;;0.30;0.20;;;15.20;76.10;;;;;;4942025;28;20031;-83
2022/09/19 10:31:47;;;;;;;0.40;0.40;;;15.10;76.20;;;;;;4875778;29;20068;-82
2022/09/19 10:34:30;;;;;;;0.20;0.15;;;15.20;75.70;;;;;;4866908;29;20037;-84
2022/09/19 10:37:02;;;;;;;1.42;0.25;;;15.20;75.50;;;;;;4879997;29;20037;-83
2022/09/19 10:39:31;;;;;;;0.50;0.20;;;15.10;75.30;;;;;;4854972;29;20044;-83
2022/09/19 10:41:57;;;;;;;0.93;0.20;;;15.10;75.00;;;;;;4855713;29;20041;-82
2022/09/19 10:44:24;;;;;;;3.60;0.32;;;15.10;75.20;;;;;;4864507;29;20036;-84
2022/09/19 10:46:58;;;;;;;1.02;0.10;;;15.10;74.90;;;;;;4869487;29;20044;-83
2022/09/19 10:49:46;;;;;;;1.17;0.20;;;15.10;74.90;;;;;;4866488;29;20608;-83
2022/09/19 10:52:22;;;;;;;0.20;0.20;;;15.10;74.90;;;;;;4878632;29;20069;-83
2022/09/19 10:54:53;;;;;;;0.20;0.10;;;15.10;75.10;;;;;;4855877;29;20145;-84
2022/09/19 10:57:45;;;;;;;0.40;0.20;;;15.10;75.00;;;;;;4854821;29;20033;-86
2022/09/19 11:00:24;;;;;;;1.80;0.30;;;15.10;75.00;;;;;;4881363;29;20059;-85
2022/09/19 11:03:23;;;;;;;0.17;0.10;;;15.10;74.90;;;;;;4857652;29;20045;-87
2022/09/19 11:06:12;;;;;;;0.38;0.30;;;15.10;75.00;;;;;;4868323;29;20474;-83
2022/09/19 11:08:48;;;;;;;0.43;0.10;;;15.00;75.30;;;;;;4881141;29;20043;-84
2022/09/19 11:11:38;;;;;;;0.17;0.10;;;15.00;75.50;;;;;;4962116;28;20095;-86
2022/09/19 11:14:18;;;;;;;0.30;0.20;;;15.00;75.90;;;;;;4946878;29;20122;-85
2022/09/19 11:17:22;;;;;;;0.88;0.22;;;15.00;76.20;;;;;;4956709;28;20450;-85
2022/09/19 11:20:08;;;;;;;0.60;0.20;;;14.90;76.40;;;;;;4939079;28;20027;-85
2022/09/19 11:22:54;;;;;;;1.05;0.20;;;14.90;76.90;;;;;;4946465;28;20099;-86
2022/09/19 11:26:03;;;;;;;0.75;0.10;;;14.90;77.50;;;;;;4956381;28;20035;-85
2022/09/19 11:28:51;;;;;;;0.30;0.10;;;14.90;77.80;;;;;;4950423;28;20034;-84
2022/09/19 11:31:29;;;;;;;1.27;0.30;;;14.90;78.00;;;;;;4967771;28;20065;-84
2022/09/19 11:34:35;;;;;;;0.25;0.20;;;14.80;78.30;;;;;;4949841;28;20055;-83
2022/09/19 11:37:42;;;;;;;1.77;0.40;;;14.80;79.00;;;;;;4943490;29;20108;-85
2022/09/19 11:40:38;;;;;;;0.47;0.30;;;14.80;79.40;;;;;;4932991;28;20059;-85
2022/09/19 11:43:45;;;;;;;0.52;0.25;;;14.70;79.60;;;;;;4958895;28;20455;-85
2022/09/19 11:46:35;;;;;;;1.40;0.30;;;14.70;80.00;;;;;;4966056;28;20054;-84
2022/09/19 11:49:50;;;;;;;1.27;0.30;;;14.80;80.40;;;;;;4933345;28;20138;-86
2022/09/19 11:52:20;;;;;;;0.63;0.30;;;14.80;80.40;;;;;;4956238;28;20043;-93
2022/09/19 11:55:12;;;;;;;1.17;0.40;;;14.80;81.30;;;;;;4954524;28;20043;-87
2022/09/19 11:57:46;;;;;;;0.80;0.40;;;14.70;80.90;;;;;;4931132;28;20067;-86
2022/09/19 12:00:25;;;;;;;1.42;0.40;;;14.70;81.20;;;;;;4940886;28;20063;-87
2022/09/19 12:03:24;;;;;;;2.50;0.60;;;14.70;81.50;;;;;;4932831;29;20584;-91
2022/09/19 12:06:22;;;;;;;0.80;0.40;;;14.70;81.70;;;;;;4918377;28;20069;-85
2022/09/19 12:09:04;;;;;;;0.82;0.40;;;14.70;81.90;;;;;;4960917;28;20051;-88
2022/09/19 12:11:50;;;;;;;0.82;0.40;;;14.70;82.10;;;;;;4956485;28;20609;-90
2022/09/19 12:14:31;;;;;;;0.93;0.30;;;14.70;82.40;;;;;;4968948;28;20067;-90
2022/09/19 12:17:29;;;;;;;0.20;0.20;;;14.80;82.10;;;;;;4937079;29;20415;-87
2022/09/19 12:20:16;;;;;;;0.55;0.40;;;14.80;82.20;;;;;;4931661;28;20042;-80
2022/09/19 12:22:54;;;;;;;0.45;0.20;;;14.70;82.30;;;;;;4928161;28;20510;-86
2022/09/19 12:25:24;;;;;;;2.20;0.40;;;14.80;83.60;;;;;;4944427;28;20031;-86
2022/09/19 12:28:10;;;;;;;2.55;0.50;;;14.80;83.50;;;;;;4957357;28;20034;-85
2022/09/19 12:30:48;;;;;;;1.17;0.20;;;14.90;83.60;;;;;;4947705;28;20071;-86
2022/09/19 12:33:55;;;;;;;0.50;0.20;;;15.00;83.00;;;;;;4958803;28;20031;-85
2022/09/19 12:36:32;;;;;;;0.85;0.35;;;15.10;82.70;;;;;;4931881;28;20066;-84
2022/09/19 12:39:09;;;;;;;0.30;0.20;;;15.10;82.40;;;;;;4949071;28;20422;-86
2022/09/19 12:41:50;;;;;;;0.25;0.10;;;15.20;82.10;;;;;;4940952;28;20035;-87
2022/09/19 12:44:46;;;;;;;2.00;0.22;;;15.20;81.80;;;;;;4944340;28;20130;-87
2022/09/19 12:47:49;;;;;;;0.82;0.30;;;15.20;81.60;;;;;;4964756;28;20031;-84
2022/09/19 12:50:31;;;;;;;0.30;0.28;;;15.30;81.40;;;;;;4981913;28;20020;-85
2022/09/19 12:53:18;;;;;;;1.65;0.30;;;15.30;81.20;;;;;;4985155;28;20035;-86
2022/09/19 12:56:15;;;;;;;0.98;0.10;;;15.40;81.30;;;;;;4971244;28;20038;-80
2022/09/19 12:59:00;;;;;;;0.80;0.20;;;15.40;82.60;;;;;;4960386;28;20122;-82
2022/09/19 13:01:33;;;;;;;0.95;0.28;;;15.40;84.10;;;;;;4961947;28;20588;-86
2022/09/19 13:04:05;;;;;;;3.65;0.40;;;15.50;84.60;;;;;;4961160;28;20019;-92
2022/09/19 13:06:42;;;;;;;1.20;0.30;;;15.60;84.50;;;;;;4960081;28;20074;-83
2022/09/19 13:09:27;;;;;;;1.08;0.35;;;15.70;84.70;;;;;;4958081;28;20046;-84
2022/09/19 13:11:59;;;;;;;1.17;0.20;;;15.80;84.80;;;;;;4960018;28;20089;-83
2022/09/19 13:14:45;;;;;;;0.55;0.30;;;15.80;84.50;;;;;;4959919;28;20517;-78
2022/09/19 13:25:28;;;;;;;0.30;0.20;;;16.20;84.10;;;;;;4959467;28;19918;-79
2022/09/19 13:28:22;;;;;;;0.20;0.20;;;16.20;83.70;;;;;;4960318;28;20129;-80
2022/09/19 13:31:09;;;;;;;2.50;0.20;;;16.30;83.00;;;;;;4957482;28;20043;-80
2022/09/19 13:33:44;;;;;;;0.57;0.20;;;16.30;82.20;;;;;;4958478;28;20036;-81
2022/09/19 13:36:14;;;;;;;0.77;0.15;;;16.30;81.50;;;;;;4942132;28;20039;-79
2022/09/19 13:38:55;;;;;;;1.33;0.28;;;16.30;81.00;;;;;;4957877;28;20387;-80
2022/09/19 13:41:44;;;;;;;1.05;0.17;;;16.30;80.40;;;;;;4959502;28;20027;-80
2022/09/19 13:44:36;;;;;;;1.95;0.30;;;16.30;80.30;;;;;;4957814;28;20118;-79
2022/09/19 13:47:21;;;;;;;2.42;0.30;;;16.20;80.30;;;;;;4959564;28;20414;-80
2022/09/19 13:50:06;;;;;;;1.08;0.30;;;16.20;80.10;;;;;;4942079;28;20039;-80
2022/09/19 13:52:41;;;;;;;0.68;0.20;;;16.20;79.60;;;;;;4959037;28;20033;-81
2022/09/19 13:55:30;;;;;;;0.98;0.32;;;16.10;79.10;;;;;;4957780;28;20037;-79
2022/09/19 13:58:31;;;;;;;2.05;0.30;;;16.00;79.20;;;;;;4958465;28;20046;-81